Česky Dansk Deutsch English Español Suomi Français Magyar Italiano Nederlands norsk Polski Português svenska Türkçe

 

Het Weer

Jever (Duitsland)

12:05, 26 september 2013 (GMT)

NWNNE
WE
SWSSE
Thuis            
Jever Wittmundhaven Nordholz Lemwerder Bremen Groningen Airport Eelde Meppen-Mil Diepholz Itzehoe Hamburg-Finkenwerder Nordhorn Hopsten Hohn Hamburg-Fuhlsbuettel Rheine-Bentlage Leeuwarden Schleswig-Jagel Eggebek Twenthe Muenster / Osnabrueck Westerland / Sylt Bergen Wunstorf

Om een weerknop op uw website of weblog te plaatsen, copieer onderstaande code en plak die in uw pagina. In het eerste vakje staat HTML-code, in het tweede vakje UBB-code.


Add to Google

Details

Windsnelheid:3 bf, 7 kn, 3.6 m/s, 8.1 miles/h, 13.0 km/h
Windrichting:NO, 050°
Zicht:Meer dan 10000 m, 10 km, 32800 ft, 6.2 miles
Wolken:Licht bewolkt op 2500 ft, 762 m
Zwaar bewolkt op 3000 ft, 914 m
Temperatuur:13°C, 55°F
Dauwpunt:7°C, 45°F
Luchtdruk:1018 hPa, 763.6 mmHg, 30.06 inHg, 1.005 atm
Relative luchtvochtigheid:66.9 %
METAR:ETNJ 261205Z 05007KT 9999 FEW025 BKN030 13/07 Q1018 BLU LAST REPORT OVER AND OUT GOODBYE

Snelkoppelingen

Actuele weersinformatie van de hele wereld. Voeg locaties toe met het plus (+) symbool. Deze snelkoppelingen kunnen worden toegevoegd aan Google.

Lid van de Technetium groep

website free tracking
StatCounter NetStat W3C Validator

24-07-2024 10:58:05
astro.technetium.be money.technetium.be phote.technetium.be tafeltennistafel.technetium.be www.ligfiets.net